Time;durP1;ratioP1;P1;durP2;ratioP2;P2;SDS_P1;SDS_P2;PMS_P1;PMS_P2;Temp;Humidity;BMP_temperature;BMP_pressure;BME280_temperature;BME280_humidity;BME280_pressure;Samples;Min_cycle;Max_cycle;Signal;HPM_P1;HPM_P2
2022/03/13 00:00:15;;;;;;;21.98;10.18;;;11.70;63.10;;;;;;5025077;28;20562;-71
2022/03/13 00:02:44;;;;;;;52.45;12.98;;;11.70;63.10;;;;;;5025185;28;20039;-73
2022/03/13 00:05:16;;;;;;;25.70;9.90;;;11.70;63.20;;;;;;5023953;28;20029;-72
2022/03/13 00:07:42;;;;;;;25.05;10.98;;;11.70;63.10;;;;;;5023544;28;20490;-73
2022/03/13 00:10:08;;;;;;;18.48;9.65;;;11.70;63.20;;;;;;5023676;28;20026;-71
2022/03/13 00:12:36;;;;;;;19.90;9.20;;;11.70;63.30;;;;;;5023790;28;20029;-73
2022/03/13 00:15:09;;;;;;;20.92;9.82;;;11.70;63.40;;;;;;5025072;28;20555;-73
2022/03/13 00:17:35;;;;;;;17.88;9.35;;;11.70;63.40;;;;;;5024113;28;20029;-73
2022/03/13 00:20:04;;;;;;;20.58;9.82;;;11.70;63.40;;;;;;5039776;28;21041;-71
2022/03/13 00:22:31;;;;;;;17.25;9.38;;;11.70;63.50;;;;;;5039681;28;21021;-72
2022/03/13 00:24:59;;;;;;;17.40;9.55;;;11.70;63.60;;;;;;5025028;28;20025;-73
2022/03/13 00:27:25;;;;;;;15.50;9.68;;;11.70;63.60;;;;;;5024197;28;20025;-72
2022/03/13 00:29:51;;;;;;;18.13;9.15;;;11.70;63.70;;;;;;5023200;28;20486;-72
2022/03/13 00:32:17;;;;;;;17.88;9.45;;;11.70;63.70;;;;;;5024501;28;20025;-73
2022/03/13 00:34:43;;;;;;;19.50;9.48;;;11.70;63.70;;;;;;5041762;28;20965;-72
2022/03/13 00:37:10;;;;;;;17.08;9.68;;;11.70;63.70;;;;;;5028162;28;20065;-72
2022/03/13 00:39:36;;;;;;;26.05;9.50;;;11.70;64.20;;;;;;5027526;28;20032;-73
2022/03/13 00:42:02;;;;;;;27.88;10.20;;;11.70;63.70;;;;;;5026914;28;20026;-73
2022/03/13 00:44:28;;;;;;;20.83;9.52;;;11.70;63.80;;;;;;5028372;28;20037;-72
2022/03/13 00:46:53;;;;;;;20.55;9.27;;;11.70;63.80;;;;;;5026599;28;20068;-73
2022/03/13 00:49:19;;;;;;;18.45;9.52;;;11.70;63.80;;;;;;5025837;28;20383;-72
2022/03/13 00:51:44;;;;;;;20.27;9.02;;;11.70;63.90;;;;;;5028210;28;20033;-74
2022/03/13 00:54:10;;;;;;;17.20;9.07;;;11.70;63.90;;;;;;5042940;28;20056;-73
2022/03/13 00:56:35;;;;;;;23.17;9.85;;;11.70;63.90;;;;;;5028002;28;20108;-73
2022/03/13 00:59:01;;;;;;;22.85;10.10;;;11.70;63.90;;;;;;5042716;28;20025;-73
2022/03/13 01:01:26;;;;;;;25.92;10.13;;;11.70;64.40;;;;;;5027642;28;20033;-72
2022/03/13 01:03:53;;;;;;;20.67;10.00;;;11.70;63.90;;;;;;5026513;28;20084;-72
2022/03/13 01:06:20;;;;;;;29.80;10.27;;;11.70;63.90;;;;;;5027548;28;20041;-72
2022/03/13 01:08:47;;;;;;;27.08;9.60;;;11.70;64.00;;;;;;5026348;28;20099;-71
2022/03/13 01:11:18;;;;;;;40.35;10.95;;;11.70;64.00;;;;;;5027247;28;20513;-72
2022/03/13 01:13:45;;;;;;;29.33;10.30;;;11.70;64.00;;;;;;5026118;28;20041;-72
2022/03/13 01:16:18;;;;;;;30.23;10.23;;;11.70;64.00;;;;;;5026080;28;20033;-73
2022/03/13 01:18:55;;;;;;;23.67;9.10;;;11.70;64.00;;;;;;5019612;28;20506;-71
2022/03/13 01:21:21;;;;;;;25.40;9.63;;;11.70;64.00;;;;;;5025827;28;20037;-72
2022/03/13 01:24:05;;;;;;;22.25;8.90;;;11.70;64.00;;;;;;5042645;28;20083;-73
2022/03/13 01:26:36;;;;;;;18.65;9.45;;;11.60;64.00;;;;;;5025697;28;20561;-72
2022/03/13 01:29:05;;;;;;;22.27;9.40;;;11.60;63.90;;;;;;5041981;28;20031;-73
2022/03/13 01:31:33;;;;;;;19.98;9.52;;;11.70;64.00;;;;;;5042469;28;20029;-74
2022/03/13 01:34:00;;;;;;;21.20;9.18;;;11.60;64.00;;;;;;5026111;28;20029;-73
2022/03/13 01:36:26;;;;;;;20.50;9.48;;;11.60;63.90;;;;;;5026955;28;20389;-73
2022/03/13 01:38:54;;;;;;;20.42;9.63;;;11.60;63.90;;;;;;5026771;28;20107;-74
2022/03/13 01:41:20;;;;;;;20.27;9.38;;;11.60;63.90;;;;;;5026945;28;20557;-73
2022/03/13 01:43:46;;;;;;;28.02;9.32;;;11.60;64.00;;;;;;5026827;28;20029;-72
2022/03/13 01:46:12;;;;;;;31.85;10.05;;;11.60;63.90;;;;;;5025227;28;20116;-73
2022/03/13 01:48:51;;;;;;;45.40;11.02;;;11.70;64.00;;;;;;5025013;28;20152;-72
2022/03/13 01:51:16;;;;;;;41.55;10.32;;;11.70;64.00;;;;;;5026482;28;20055;-72
2022/03/13 01:53:42;;;;;;;37.17;10.00;;;11.60;64.00;;;;;;5026881;28;20402;-73
2022/03/13 01:56:08;;;;;;;26.80;9.82;;;11.60;64.00;;;;;;5026247;28;20033;-72
2022/03/13 01:58:33;;;;;;;19.13;8.75;;;11.60;64.00;;;;;;5041744;28;20491;-72
2022/03/13 02:00:59;;;;;;;25.02;9.75;;;11.60;64.00;;;;;;5022800;28;20091;-71
2022/03/13 02:03:27;;;;;;;22.90;9.23;;;11.60;64.00;;;;;;5042138;28;20060;-74
2022/03/13 02:05:52;;;;;;;17.00;9.10;;;11.60;63.90;;;;;;5024252;28;20116;-72
2022/03/13 02:08:22;;;;;;;15.07;8.32;;;11.60;63.90;;;;;;5025857;28;20051;-74
2022/03/13 02:10:49;;;;;;;21.90;8.68;;;11.60;63.90;;;;;;5025445;28;20453;-73
2022/03/13 02:13:17;;;;;;;18.50;8.90;;;11.60;63.90;;;;;;5026347;28;20026;-73
2022/03/13 02:15:43;;;;;;;21.75;10.00;;;11.60;63.90;;;;;;5026140;28;20021;-72
2022/03/13 02:18:08;;;;;;;24.33;9.38;;;11.60;63.90;;;;;;5024856;28;20231;-73
2022/03/13 02:20:40;;;;;;;24.73;9.13;;;11.60;63.90;;;;;;5026294;28;20522;-72
2022/03/13 02:23:19;;;;;;;22.95;9.68;;;11.60;63.80;;;;;;5024586;28;20395;-72
2022/03/13 02:25:59;;;;;;;31.25;9.90;;;11.60;63.80;;;;;;5041571;28;20048;-73
2022/03/13 02:28:28;;;;;;;166.27;19.23;;;11.60;63.80;;;;;;5024102;28;20490;-73
2022/03/13 02:31:00;;;;;;;103.00;15.10;;;11.60;63.80;;;;;;5024575;28;20033;-73
2022/03/13 02:33:26;;;;;;;71.25;12.88;;;11.60;63.80;;;;;;5024703;28;20049;-74
2022/03/13 02:36:04;;;;;;;44.05;10.13;;;11.60;63.80;;;;;;5025184;28;20080;-73
2022/03/13 02:38:31;;;;;;;39.80;10.38;;;11.60;63.80;;;;;;5025655;28;20427;-73
2022/03/13 02:40:58;;;;;;;29.60;10.02;;;11.60;63.90;;;;;;5024527;28;20033;-72
2022/03/13 02:43:24;;;;;;;27.25;10.43;;;11.60;63.90;;;;;;5025565;28;20505;-73
2022/03/13 02:45:52;;;;;;;24.73;10.05;;;11.50;63.70;;;;;;5024958;28;20043;-73
2022/03/13 02:48:18;;;;;;;30.55;10.05;;;11.60;63.80;;;;;;5025137;28;20910;-71
2022/03/13 02:50:44;;;;;;;45.22;11.27;;;11.60;63.80;;;;;;5024333;28;20406;-73
2022/03/13 02:53:10;;;;;;;25.67;10.15;;;11.60;63.90;;;;;;5024535;28;20060;-72
2022/03/13 02:55:36;;;;;;;30.63;10.50;;;11.60;63.80;;;;;;5024773;28;20029;-74
2022/03/13 02:58:02;;;;;;;28.80;9.55;;;11.60;63.80;;;;;;5022822;28;20080;-73
2022/03/13 03:00:44;;;;;;;43.67;10.95;;;11.60;63.80;;;;;;5040614;28;20116;-73
2022/03/13 03:03:18;;;;;;;31.65;10.65;;;11.60;63.90;;;;;;5024249;28;20053;-72
2022/03/13 03:05:44;;;;;;;27.88;10.05;;;11.60;63.90;;;;;;5025708;28;20037;-73
2022/03/13 03:08:10;;;;;;;28.75;9.45;;;11.60;63.80;;;;;;5023321;28;20044;-72
2022/03/13 03:10:37;;;;;;;26.40;9.40;;;11.60;63.80;;;;;;5025731;28;20028;-73
2022/03/13 03:13:04;;;;;;;19.17;9.73;;;11.60;63.80;;;;;;5023989;28;20087;-71
2022/03/13 03:15:30;;;;;;;22.58;9.10;;;11.50;63.70;;;;;;5023794;28;20148;-73
2022/03/13 03:17:55;;;;;;;18.42;8.73;;;11.60;63.70;;;;;;5025076;28;20439;-73
2022/03/13 03:20:21;;;;;;;18.17;8.85;;;11.60;63.60;;;;;;5025737;28;20386;-73
2022/03/13 03:22:49;;;;;;;19.95;9.35;;;11.60;63.60;;;;;;5039942;28;20033;-73
2022/03/13 03:25:22;;;;;;;19.15;9.25;;;11.50;63.50;;;;;;5025274;28;20033;-71
2022/03/13 03:27:49;;;;;;;64.78;11.95;;;11.60;63.60;;;;;;5023666;28;20150;-74
2022/03/13 03:30:19;;;;;;;28.65;9.20;;;11.60;63.70;;;;;;5024929;28;20031;-72
2022/03/13 03:32:45;;;;;;;22.65;8.90;;;11.50;63.60;;;;;;5025358;28;20056;-72
2022/03/13 03:35:10;;;;;;;21.50;9.80;;;11.60;63.60;;;;;;5025290;28;20060;-73
2022/03/13 03:37:36;;;;;;;18.77;9.10;;;11.60;63.60;;;;;;5024316;28;20048;-73
2022/03/13 03:40:02;;;;;;;22.92;9.38;;;11.50;63.60;;;;;;5025256;28;20105;-72
2022/03/13 03:42:28;;;;;;;15.23;9.32;;;11.50;63.70;;;;;;5019606;28;20439;-71
2022/03/13 03:44:53;;;;;;;19.00;9.18;;;11.50;63.70;;;;;;5014330;28;20021;-73
2022/03/13 03:47:19;;;;;;;21.67;8.82;;;11.50;63.80;;;;;;5024468;28;20482;-73
2022/03/13 03:49:45;;;;;;;20.70;9.00;;;11.50;63.70;;;;;;5025136;28;20395;-74
2022/03/13 03:52:10;;;;;;;21.25;9.23;;;11.50;63.70;;;;;;5024655;28;20132;-72
2022/03/13 03:54:36;;;;;;;22.15;9.07;;;11.50;63.70;;;;;;5040237;28;20116;-74
2022/03/13 03:57:02;;;;;;;18.83;9.23;;;11.50;63.70;;;;;;5023437;28;20018;-71
2022/03/13 03:59:27;;;;;;;13.85;8.15;;;11.50;63.70;;;;;;5024463;28;20390;-72
2022/03/13 04:01:53;;;;;;;18.25;8.80;;;11.50;63.70;;;;;;5039478;28;20506;-72
2022/03/13 04:04:19;;;;;;;20.20;9.70;;;11.50;63.70;;;;;;5025082;28;20037;-73
2022/03/13 04:06:45;;;;;;;17.02;8.70;;;11.50;63.70;;;;;;5024727;28;20854;-72
2022/03/13 04:09:11;;;;;;;14.18;8.82;;;11.50;63.70;;;;;;5025815;28;20034;-73
2022/03/13 04:11:38;;;;;;;16.45;8.48;;;11.50;63.70;;;;;;5028557;28;20026;-72
2022/03/13 04:14:04;;;;;;;19.35;9.07;;;11.50;63.70;;;;;;5043855;28;20621;-71
2022/03/13 04:16:30;;;;;;;14.50;8.38;;;11.50;63.70;;;;;;5044035;28;20493;-73
2022/03/13 04:18:56;;;;;;;15.82;8.15;;;11.50;63.70;;;;;;5043479;28;20029;-71
2022/03/13 04:21:22;;;;;;;15.15;8.57;;;11.50;63.70;;;;;;5044116;28;20037;-73
2022/03/13 04:23:48;;;;;;;15.77;8.43;;;11.50;63.70;;;;;;5028402;28;20047;-72
2022/03/13 04:26:14;;;;;;;13.95;8.73;;;11.50;63.70;;;;;;5044028;28;20147;-73
2022/03/13 04:28:40;;;;;;;18.67;8.48;;;11.50;63.70;;;;;;5043188;28;20029;-73
2022/03/13 04:31:08;;;;;;;15.32;8.65;;;11.50;63.70;;;;;;5027113;28;20026;-73
2022/03/13 04:33:36;;;;;;;18.25;8.68;;;11.50;63.70;;;;;;5027818;28;20060;-73
2022/03/13 04:36:13;;;;;;;18.05;9.30;;;11.50;63.70;;;;;;5028314;28;20543;-71
2022/03/13 04:38:39;;;;;;;18.02;8.68;;;11.50;63.60;;;;;;5026422;28;20041;-72
2022/03/13 04:41:05;;;;;;;18.83;8.65;;;11.50;63.60;;;;;;5026763;28;20569;-73
2022/03/13 04:43:30;;;;;;;16.25;8.48;;;11.50;63.60;;;;;;5026092;28;20120;-72
2022/03/13 04:45:56;;;;;;;14.02;8.38;;;11.40;63.50;;;;;;5027098;28;20398;-73
2022/03/13 04:48:21;;;;;;;14.52;8.40;;;11.50;63.60;;;;;;5027714;28;20040;-74
2022/03/13 04:50:47;;;;;;;18.08;8.45;;;11.50;63.60;;;;;;5026631;28;20029;-73
2022/03/13 04:53:14;;;;;;;14.27;8.65;;;11.50;63.50;;;;;;5026773;28;20029;-71
2022/03/13 04:55:40;;;;;;;15.10;7.70;;;11.50;63.50;;;;;;5028400;28;20029;-74
2022/03/13 04:58:08;;;;;;;12.85;8.07;;;11.50;63.50;;;;;;5027455;28;20406;-73
2022/03/13 05:00:37;;;;;;;12.00;7.97;;;11.40;63.50;;;;;;5026413;28;20083;-73
2022/03/13 05:03:03;;;;;;;13.75;8.45;;;11.40;63.50;;;;;;5026569;28;20033;-73
2022/03/13 05:05:28;;;;;;;15.48;8.77;;;11.50;63.60;;;;;;5028023;28;20056;-73
2022/03/13 05:07:54;;;;;;;13.88;7.43;;;11.40;63.50;;;;;;5027180;28;20041;-73
2022/03/13 05:10:20;;;;;;;11.30;7.90;;;11.50;63.50;;;;;;5026210;28;20033;-72
2022/03/13 05:12:47;;;;;;;12.57;8.30;;;11.40;63.50;;;;;;5027194;28;20021;-73
2022/03/13 05:15:13;;;;;;;13.32;7.72;;;11.40;63.50;;;;;;5043111;28;20387;-73
2022/03/13 05:17:38;;;;;;;11.20;7.60;;;11.50;63.50;;;;;;5042205;28;20410;-73
2022/03/13 05:20:05;;;;;;;14.23;7.75;;;11.40;63.50;;;;;;5026876;28;20021;-73
2022/03/13 05:22:31;;;;;;;14.10;9.02;;;11.50;63.50;;;;;;5042321;28;20086;-72
2022/03/13 05:24:57;;;;;;;12.27;7.90;;;11.50;63.40;;;;;;5026631;28;20403;-73
2022/03/13 05:27:23;;;;;;;13.52;8.80;;;11.50;63.40;;;;;;5024360;28;20036;-72
2022/03/13 05:29:48;;;;;;;12.38;7.90;;;11.40;63.40;;;;;;5025694;28;20036;-73
2022/03/13 05:32:14;;;;;;;12.20;7.72;;;11.50;63.40;;;;;;5041767;28;20371;-72
2022/03/13 05:34:39;;;;;;;17.40;8.15;;;11.40;63.40;;;;;;5025707;28;20029;-73
2022/03/13 05:37:06;;;;;;;11.48;7.50;;;11.40;63.30;;;;;;5026625;28;20570;-72
2022/03/13 05:39:31;;;;;;;10.23;7.15;;;11.40;63.30;;;;;;5026451;28;20033;-74
2022/03/13 05:41:57;;;;;;;13.07;7.88;;;11.40;63.20;;;;;;5025472;28;20421;-72
2022/03/13 05:44:23;;;;;;;11.25;8.10;;;11.40;63.10;;;;;;5022459;28;20103;-73
2022/03/13 05:46:49;;;;;;;10.48;7.72;;;11.40;63.10;;;;;;5018005;28;20030;-72
2022/03/13 05:49:14;;;;;;;10.88;8.05;;;11.40;63.00;;;;;;5026491;28;20036;-74
2022/03/13 05:51:41;;;;;;;12.52;7.75;;;11.40;63.00;;;;;;5025201;28;20224;-72
2022/03/13 05:54:07;;;;;;;12.00;7.68;;;11.40;63.00;;;;;;5025044;28;20408;-73
2022/03/13 05:56:32;;;;;;;12.82;8.32;;;11.40;62.80;;;;;;5021037;28;20026;-73
2022/03/13 05:58:58;;;;;;;12.10;7.45;;;11.40;62.80;;;;;;5026888;28;20038;-74
2022/03/13 06:01:24;;;;;;;11.57;7.85;;;11.40;62.60;;;;;;5025488;28;20538;-72
2022/03/13 06:03:49;;;;;;;12.85;7.97;;;11.40;62.60;;;;;;5027201;28;20782;-73
2022/03/13 06:06:15;;;;;;;11.38;7.88;;;11.40;62.60;;;;;;5025551;28;20033;-73
2022/03/13 06:08:41;;;;;;;11.20;7.63;;;11.40;63.00;;;;;;5026564;28;20036;-73
2022/03/13 06:11:08;;;;;;;11.88;7.72;;;11.40;62.60;;;;;;5026806;28;20034;-73
2022/03/13 06:13:34;;;;;;;10.90;7.47;;;11.40;62.60;;;;;;5026922;28;20014;-74
2022/03/13 06:15:59;;;;;;;10.43;7.60;;;11.40;62.60;;;;;;5026729;28;20029;-74
2022/03/13 06:18:27;;;;;;;11.52;7.93;;;11.40;62.70;;;;;;5026576;28;20482;-72
2022/03/13 06:20:53;;;;;;;12.73;8.35;;;11.50;62.70;;;;;;5026759;28;20402;-73
2022/03/13 06:23:19;;;;;;;11.10;7.60;;;11.40;62.60;;;;;;5025329;28;20055;-72
2022/03/13 06:25:45;;;;;;;11.88;7.90;;;11.50;62.70;;;;;;5021812;28;20026;-73
2022/03/13 06:28:10;;;;;;;12.60;8.02;;;11.50;62.60;;;;;;5018288;28;20037;-72
2022/03/13 06:30:37;;;;;;;12.23;7.55;;;11.50;62.60;;;;;;5026533;28;20045;-72
2022/03/13 06:33:03;;;;;;;13.85;7.60;;;11.50;62.50;;;;;;5026292;28;20087;-73
2022/03/13 06:35:29;;;;;;;10.60;7.35;;;11.50;62.60;;;;;;5023132;28;20569;-73
2022/03/13 06:37:55;;;;;;;12.57;8.13;;;11.50;62.50;;;;;;5024424;28;20079;-73
2022/03/13 06:40:22;;;;;;;11.38;7.72;;;11.60;62.60;;;;;;5026240;28;20479;-72
2022/03/13 06:42:50;;;;;;;11.77;7.90;;;11.60;62.50;;;;;;5039016;28;20045;-73
2022/03/13 06:45:16;;;;;;;10.70;7.53;;;11.60;62.50;;;;;;5021518;28;20026;-73
2022/03/13 06:47:49;;;;;;;12.15;8.23;;;11.60;62.40;;;;;;5017349;28;20103;-73
2022/03/13 06:50:16;;;;;;;11.07;7.63;;;11.60;62.40;;;;;;5021419;28;20140;-72
2022/03/13 06:52:42;;;;;;;10.98;7.63;;;11.60;62.20;;;;;;5018067;28;20025;-73
2022/03/13 06:55:09;;;;;;;11.13;7.75;;;11.70;62.30;;;;;;5022858;28;20136;-73
2022/03/13 06:57:34;;;;;;;11.13;7.57;;;11.70;62.30;;;;;;5020045;28;20041;-71
2022/03/13 07:00:00;;;;;;;12.20;8.02;;;11.70;62.40;;;;;;5015618;28;20033;-73
2022/03/13 07:02:26;;;;;;;11.25;7.95;;;11.70;62.30;;;;;;5011905;28;20033;-73
2022/03/13 07:04:52;;;;;;;12.18;7.63;;;11.70;62.30;;;;;;5009533;28;20053;-73
2022/03/13 07:07:17;;;;;;;11.32;7.55;;;11.70;62.30;;;;;;5027015;28;20029;-73
2022/03/13 07:09:43;;;;;;;10.65;8.10;;;11.80;62.20;;;;;;5026956;28;20025;-72
2022/03/13 07:12:11;;;;;;;11.73;8.23;;;11.80;62.10;;;;;;5042652;28;20056;-72
2022/03/13 07:14:37;;;;;;;12.35;8.15;;;11.80;62.10;;;;;;5027166;28;20028;-73
2022/03/13 07:17:03;;;;;;;11.93;8.32;;;11.80;62.00;;;;;;5024314;28;20540;-73
2022/03/13 07:19:29;;;;;;;11.25;8.57;;;11.90;61.90;;;;;;5006913;28;20029;-72
2022/03/13 07:21:55;;;;;;;11.77;8.43;;;11.90;62.20;;;;;;5006137;28;20778;-72
2022/03/13 07:24:20;;;;;;;11.68;7.80;;;12.00;62.30;;;;;;5006184;28;20025;-73
2022/03/13 07:26:46;;;;;;;11.88;8.35;;;12.00;62.30;;;;;;5005921;28;20034;-73
2022/03/13 07:29:11;;;;;;;12.25;7.78;;;12.00;62.40;;;;;;5010901;28;20518;-73
2022/03/13 07:31:37;;;;;;;12.02;7.78;;;12.00;62.40;;;;;;5024605;28;20026;-72
2022/03/13 07:34:03;;;;;;;12.20;8.27;;;12.00;62.40;;;;;;5017158;28;20156;-73
2022/03/13 07:36:28;;;;;;;11.30;8.50;;;12.10;63.00;;;;;;5009366;28;20522;-73
2022/03/13 07:38:54;;;;;;;12.30;8.38;;;12.10;62.60;;;;;;5017707;28;20036;-72
2022/03/13 07:41:20;;;;;;;10.77;7.63;;;12.10;62.50;;;;;;5003489;28;20034;-73
2022/03/13 07:43:46;;;;;;;10.20;7.35;;;12.20;62.50;;;;;;5012202;28;20054;-73
2022/03/13 07:46:11;;;;;;;10.77;7.53;;;12.20;62.40;;;;;;5019249;28;20021;-74
2022/03/13 07:48:38;;;;;;;11.07;7.80;;;12.20;62.20;;;;;;5024137;28;20076;-73
2022/03/13 07:51:05;;;;;;;10.57;7.82;;;12.20;62.00;;;;;;5014941;28;20104;-73
2022/03/13 07:53:31;;;;;;;10.25;7.35;;;12.20;61.90;;;;;;5021072;28;20018;-73
2022/03/13 07:55:57;;;;;;;11.20;7.55;;;12.30;61.90;;;;;;5006167;28;20022;-72
2022/03/13 07:58:24;;;;;;;11.05;7.65;;;12.30;61.90;;;;;;5014041;28;20052;-72
2022/03/13 08:00:50;;;;;;;12.25;7.60;;;12.30;61.70;;;;;;5033117;28;20037;-74
2022/03/13 08:03:18;;;;;;;9.70;7.43;;;12.30;61.60;;;;;;5021727;28;20037;-73
2022/03/13 08:05:43;;;;;;;10.82;7.28;;;12.30;61.60;;;;;;5036390;28;20086;-72
2022/03/13 08:08:09;;;;;;;10.70;7.57;;;12.40;61.60;;;;;;5013724;28;20129;-74
2022/03/13 08:10:34;;;;;;;12.38;7.50;;;12.40;61.50;;;;;;5017960;28;20049;-72
2022/03/13 08:13:00;;;;;;;11.63;7.60;;;12.40;61.50;;;;;;5016868;28;20030;-73
2022/03/13 08:15:26;;;;;;;10.93;7.60;;;12.40;62.00;;;;;;5018637;28;20029;-72
2022/03/13 08:17:51;;;;;;;10.95;7.65;;;12.40;61.30;;;;;;5006540;28;20022;-73
2022/03/13 08:20:17;;;;;;;10.65;7.38;;;12.50;61.30;;;;;;5009027;28;20026;-71
2022/03/13 08:22:42;;;;;;;13.20;7.65;;;12.50;61.30;;;;;;5017875;28;20364;-73
2022/03/13 08:25:10;;;;;;;10.90;7.10;;;12.50;61.30;;;;;;5008531;28;20492;-72
2022/03/13 08:27:36;;;;;;;10.55;7.13;;;12.50;61.30;;;;;;5024514;28;20028;-73
2022/03/13 08:30:03;;;;;;;9.55;7.20;;;12.60;61.30;;;;;;5024463;28;20025;-73
2022/03/13 08:32:29;;;;;;;13.00;7.57;;;12.60;61.30;;;;;;5018916;28;20117;-72
2022/03/13 08:34:55;;;;;;;10.10;7.28;;;12.60;61.20;;;;;;5018168;28;20819;-74
2022/03/13 08:37:21;;;;;;;10.98;7.25;;;12.60;61.20;;;;;;5020309;28;20155;-73
2022/03/13 08:39:46;;;;;;;9.93;7.03;;;12.60;61.20;;;;;;5020776;28;20033;-72
2022/03/13 08:42:12;;;;;;;9.65;7.22;;;12.60;61.20;;;;;;5024553;28;20026;-72
2022/03/13 08:44:38;;;;;;;9.57;6.88;;;12.60;61.30;;;;;;5022931;28;20493;-73
2022/03/13 08:47:04;;;;;;;10.48;7.18;;;12.60;61.20;;;;;;5023685;28;20026;-70
2022/03/13 08:49:30;;;;;;;11.32;7.28;;;12.60;61.30;;;;;;5023568;28;20791;-72
2022/03/13 08:51:56;;;;;;;11.38;7.28;;;12.60;61.40;;;;;;5023939;28;20085;-72
2022/03/13 08:54:21;;;;;;;10.07;7.20;;;12.60;61.10;;;;;;5023852;28;20119;-73
2022/03/13 08:56:48;;;;;;;10.60;7.18;;;12.60;61.20;;;;;;5025742;28;20036;-72
2022/03/13 08:59:20;;;;;;;10.30;7.10;;;12.70;61.30;;;;;;5026633;28;20030;-72
2022/03/13 09:01:47;;;;;;;10.65;6.97;;;12.70;61.30;;;;;;5027984;28;20506;-73
2022/03/13 09:04:13;;;;;;;9.10;6.53;;;12.70;61.20;;;;;;5028408;28;20029;-72
2022/03/13 09:06:39;;;;;;;9.43;6.68;;;12.70;61.30;;;;;;5027985;28;20513;-73
2022/03/13 09:09:05;;;;;;;9.82;6.60;;;12.70;61.40;;;;;;5027024;28;20025;-73
2022/03/13 09:11:33;;;;;;;9.40;6.53;;;12.70;61.30;;;;;;5024507;28;20022;-73
2022/03/13 09:13:59;;;;;;;10.00;6.82;;;12.70;61.20;;;;;;5020319;28;20030;-72
2022/03/13 09:16:26;;;;;;;9.25;6.90;;;12.80;61.20;;;;;;5029262;28;20040;-72
2022/03/13 09:18:51;;;;;;;13.70;7.10;;;12.80;61.10;;;;;;5027508;28;20524;-73
2022/03/13 09:21:17;;;;;;;11.35;7.13;;;12.80;61.00;;;;;;5027948;28;20041;-73
2022/03/13 09:23:42;;;;;;;11.00;6.93;;;12.80;60.90;;;;;;5044338;28;20063;-71
2022/03/13 09:26:08;;;;;;;9.90;6.82;;;12.90;60.80;;;;;;5016543;28;20030;-72
2022/03/13 09:28:34;;;;;;;10.43;6.55;;;12.90;60.70;;;;;;5020769;28;20155;-73
2022/03/13 09:31:00;;;;;;;11.00;7.57;;;12.90;60.70;;;;;;5015992;28;20028;-74
2022/03/13 09:33:27;;;;;;;11.10;7.13;;;12.90;60.60;;;;;;5015882;28;20096;-73
2022/03/13 09:35:53;;;;;;;12.13;7.03;;;12.90;60.60;;;;;;5018573;28;20026;-74
2022/03/13 09:38:19;;;;;;;10.00;6.50;;;12.90;60.50;;;;;;5027449;28;20033;-73
2022/03/13 09:40:45;;;;;;;10.98;7.43;;;12.90;60.50;;;;;;5021040;28;20101;-74
2022/03/13 09:43:10;;;;;;;10.00;6.90;;;12.90;60.50;;;;;;5023836;28;20141;-73
2022/03/13 09:45:36;;;;;;;9.73;6.53;;;12.90;60.50;;;;;;5025552;28;20592;-72
2022/03/13 09:48:03;;;;;;;11.02;6.70;;;13.00;60.60;;;;;;5020578;28;20037;-74
2022/03/13 09:50:29;;;;;;;10.60;7.32;;;13.00;60.50;;;;;;5024326;28;20026;-75
2022/03/13 09:52:55;;;;;;;11.07;6.65;;;12.90;60.60;;;;;;5021259;28;20049;-74
2022/03/13 09:55:21;;;;;;;10.00;6.63;;;13.00;60.60;;;;;;5021851;28;20465;-72
2022/03/13 09:57:48;;;;;;;10.02;6.88;;;13.00;60.60;;;;;;5027898;28;20047;-72
2022/03/13 10:00:18;;;;;;;8.65;6.22;;;13.00;60.60;;;;;;5023645;28;20018;-71
2022/03/13 10:02:44;;;;;;;10.73;6.93;;;13.00;60.50;;;;;;5016800;28;20486;-73
2022/03/13 10:05:17;;;;;;;9.35;5.82;;;13.00;60.50;;;;;;5019251;28;20032;-73
2022/03/13 10:07:49;;;;;;;9.68;6.50;;;13.00;60.60;;;;;;5015788;28;20025;-72
2022/03/13 10:10:14;;;;;;;11.52;6.25;;;13.00;60.50;;;;;;5013312;28;20022;-71
2022/03/13 10:12:41;;;;;;;9.10;6.78;;;13.00;60.50;;;;;;5014566;28;20029;-72
2022/03/13 10:15:07;;;;;;;9.50;6.65;;;13.10;60.50;;;;;;5015295;28;20026;-71
2022/03/13 10:17:35;;;;;;;9.25;6.20;;;13.10;60.40;;;;;;5013959;28;20036;-71
2022/03/13 10:20:30;;;;;;;10.60;6.40;;;13.10;60.40;;;;;;5035094;28;20029;-73
2022/03/13 10:23:02;;;;;;;9.40;5.97;;;13.10;60.40;;;;;;5016946;28;20104;-72
2022/03/13 10:25:30;;;;;;;11.50;6.68;;;13.10;60.40;;;;;;5015385;28;20026;-72
2022/03/13 10:28:12;;;;;;;10.73;7.00;;;13.10;60.30;;;;;;5006496;28;20129;-73
2022/03/13 10:30:38;;;;;;;9.25;6.35;;;13.10;60.30;;;;;;5008012;28;20498;-73
2022/03/13 10:33:06;;;;;;;11.98;7.03;;;13.10;60.50;;;;;;5025536;28;20029;-73
2022/03/13 10:35:31;;;;;;;10.25;6.10;;;13.10;60.40;;;;;;5025947;28;20112;-74
2022/03/13 10:37:57;;;;;;;9.48;6.35;;;13.10;60.50;;;;;;5025223;28;20124;-73
2022/03/13 10:40:24;;;;;;;9.27;6.10;;;13.10;60.40;;;;;;5026446;28;20033;-73
2022/03/13 10:42:53;;;;;;;9.73;6.10;;;13.10;60.40;;;;;;5025272;28;20029;-71
2022/03/13 10:45:34;;;;;;;8.52;6.13;;;13.20;60.50;;;;;;5024536;28;20033;-72
2022/03/13 10:48:26;;;;;;;8.88;6.30;;;13.20;60.50;;;;;;5025566;28;20055;-73
2022/03/13 10:50:53;;;;;;;8.93;6.47;;;13.10;60.50;;;;;;5025815;28;20029;-74
2022/03/13 10:53:20;;;;;;;9.65;6.30;;;13.10;60.40;;;;;;5026726;28;20061;-74
2022/03/13 10:56:08;;;;;;;8.77;6.00;;;13.10;60.50;;;;;;5027649;28;20088;-72
2022/03/13 10:58:37;;;;;;;9.93;6.40;;;13.10;60.60;;;;;;5026966;28;20028;-77
2022/03/13 11:01:10;;;;;;;9.52;6.38;;;13.20;60.60;;;;;;5043302;28;20038;-78
2022/03/13 11:03:52;;;;;;;11.45;7.03;;;13.10;60.70;;;;;;5043553;28;20078;-75
2022/03/13 11:06:19;;;;;;;9.73;5.95;;;13.10;60.60;;;;;;5026788;28;20034;-76
2022/03/13 11:08:45;;;;;;;9.75;6.07;;;13.20;60.70;;;;;;5014825;28;20117;-75
2022/03/13 11:14:02;;;;;;;9.82;6.32;;;13.10;61.30;;;;;;5429516;22;20485;-74
2022/03/13 11:16:30;;;;;;;9.32;6.30;;;13.10;60.60;;;;;;5062093;28;20024;-75
2022/03/13 11:19:03;;;;;;;10.35;6.38;;;13.20;59.90;;;;;;5067835;28;20050;-76
2022/03/13 11:21:29;;;;;;;9.75;6.53;;;13.20;59.80;;;;;;5068046;28;20052;-75
2022/03/13 11:23:55;;;;;;;11.07;6.63;;;13.20;59.60;;;;;;5056700;28;20052;-76
2022/03/13 11:26:24;;;;;;;10.07;6.40;;;13.30;59.70;;;;;;5055393;28;20024;-74
2022/03/13 11:28:52;;;;;;;11.50;6.72;;;13.20;59.70;;;;;;5047807;28;20041;-76
2022/03/13 11:31:34;;;;;;;10.48;6.90;;;13.20;59.80;;;;;;5047249;28;20049;-74
2022/03/13 11:34:22;;;;;;;12.93;6.82;;;13.20;59.80;;;;;;5052508;28;20704;-75
2022/03/13 11:36:52;;;;;;;13.95;6.80;;;13.20;59.80;;;;;;5051371;28;20028;-75
2022/03/13 11:39:29;;;;;;;15.20;7.00;;;13.30;59.70;;;;;;5051350;28;20158;-74
2022/03/13 11:41:56;;;;;;;12.90;6.80;;;13.30;59.60;;;;;;5057893;28;20056;-75
2022/03/13 11:44:28;;;;;;;14.40;6.93;;;13.30;59.80;;;;;;5062893;28;20030;-74
2022/03/13 11:46:59;;;;;;;13.68;7.35;;;13.30;59.80;;;;;;5052463;28;20024;-74
2022/03/13 11:49:31;;;;;;;13.85;7.07;;;13.30;59.80;;;;;;5057970;28;20025;-74
2022/03/13 11:52:12;;;;;;;11.50;6.75;;;13.20;59.70;;;;;;5050536;28;20075;-74
2022/03/13 11:54:52;;;;;;;16.13;6.78;;;13.20;59.80;;;;;;5050634;28;20033;-73
2022/03/13 11:57:26;;;;;;;16.03;6.67;;;13.20;59.80;;;;;;5044389;28;20481;-74
2022/03/13 12:00:10;;;;;;;13.15;6.93;;;13.20;59.90;;;;;;5048219;28;20116;-74
2022/03/13 12:02:41;;;;;;;11.13;6.55;;;13.20;60.00;;;;;;5053382;28;20028;-76
2022/03/13 12:05:25;;;;;;;14.35;7.75;;;13.20;60.20;;;;;;5053750;28;20049;-74
2022/03/13 12:07:56;;;;;;;13.23;6.93;;;13.20;60.20;;;;;;5063416;28;20699;-74
2022/03/13 12:10:42;;;;;;;11.32;6.75;;;13.20;60.30;;;;;;5064901;28;20032;-74
2022/03/13 12:13:12;;;;;;;12.68;7.03;;;13.20;60.40;;;;;;5065462;28;20112;-74
2022/03/13 12:15:39;;;;;;;12.40;7.80;;;13.20;60.70;;;;;;5047041;28;20158;-74
2022/03/13 12:18:27;;;;;;;13.07;7.00;;;13.20;60.20;;;;;;5050276;28;20029;-76
2022/03/13 12:21:04;;;;;;;12.13;6.68;;;13.20;60.10;;;;;;5042709;28;20025;-74
2022/03/13 12:23:33;;;;;;;11.52;6.90;;;13.20;60.20;;;;;;5042960;28;20044;-75
2022/03/13 12:26:15;;;;;;;12.77;6.45;;;13.20;60.30;;;;;;5045640;28;20607;-75
2022/03/13 12:28:41;;;;;;;10.73;6.18;;;13.20;60.30;;;;;;5047678;28;20029;-75
2022/03/13 12:31:07;;;;;;;13.70;6.75;;;13.20;60.20;;;;;;5056046;28;20111;-77
2022/03/13 12:33:36;;;;;;;14.25;7.22;;;13.20;60.20;;;;;;5064494;28;20028;-74
2022/03/13 12:36:02;;;;;;;10.75;6.68;;;13.20;60.20;;;;;;5068405;28;20392;-75
2022/03/13 12:38:33;;;;;;;9.70;6.57;;;13.20;60.30;;;;;;5060500;28;20025;-76
2022/03/13 12:41:02;;;;;;;10.90;6.70;;;13.20;60.30;;;;;;5065022;28;20036;-77